Time;durP1;ratioP1;P1;durP2;ratioP2;P2;SDS_P1;SDS_P2;PMS_P1;PMS_P2;Temp;Humidity;BMP_temperature;BMP_pressure;BME280_temperature;BME280_humidity;BME280_pressure;Samples;Min_cycle;Max_cycle;Signal;HPM_P1;HPM_P2
2021/12/25 00:00:35;;;;;;;3.23;0.80;;;-3.20;99.90;;;;;;4826236;29;20179;-68
2021/12/25 00:03:03;;;;;;;3.00;0.70;;;-3.20;99.90;;;;;;4828207;29;20673;-70
2021/12/25 00:05:31;;;;;;;4.17;1.00;;;-3.20;99.90;;;;;;4821924;29;21432;-66
2021/12/25 00:07:58;;;;;;;1.00;0.93;;;-3.20;99.90;;;;;;4828096;29;20143;-67
2021/12/25 00:10:25;;;;;;;5.57;0.67;;;-3.20;99.90;;;;;;4825619;29;20080;-67
2021/12/25 00:12:54;;;;;;;1.13;0.73;;;-3.20;99.90;;;;;;4828403;29;21064;-68
2021/12/25 00:15:21;;;;;;;2.10;0.80;;;-3.10;99.90;;;;;;4826526;29;20067;-68
2021/12/25 00:17:49;;;;;;;3.37;0.83;;;-3.20;99.90;;;;;;4828045;29;20141;-69
2021/12/25 00:20:16;;;;;;;5.00;1.00;;;-3.20;99.90;;;;;;4827567;29;20143;-67
2021/12/25 00:22:43;;;;;;;2.23;1.10;;;-3.10;99.90;;;;;;4830699;29;20155;-70
2021/12/25 00:25:10;;;;;;;3.57;0.47;;;-3.10;99.90;;;;;;4832286;29;20160;-70
2021/12/25 00:27:58;;;;;;;3.90;0.60;;;-3.20;99.90;;;;;;4831907;29;20052;-67
2021/12/25 00:30:42;;;;;;;2.53;1.07;;;-3.20;99.90;;;;;;4844889;29;20060;-67
2021/12/25 00:33:33;;;;;;;4.37;1.00;;;-3.30;99.90;;;;;;4832626;29;22417;-63
2021/12/25 00:36:01;;;;;;;4.87;0.60;;;-3.30;99.90;;;;;;4830349;29;20087;-70
2021/12/25 00:38:27;;;;;;;5.40;1.17;;;-3.30;99.90;;;;;;4841317;29;20131;-70
2021/12/25 00:40:54;;;;;;;2.63;2.43;;;-3.30;99.90;;;;;;4828045;29;20052;-71
2021/12/25 00:43:21;;;;;;;1.60;1.13;;;-3.20;99.90;;;;;;4827404;29;20052;-74
2021/12/25 00:45:48;;;;;;;4.80;0.97;;;-3.20;99.90;;;;;;4825222;29;20184;-70
2021/12/25 00:48:16;;;;;;;1.27;0.80;;;-3.30;99.90;;;;;;4832069;29;21482;-65
2021/12/25 00:50:43;;;;;;;2.20;1.00;;;-3.30;99.90;;;;;;4828771;29;20657;-66
2021/12/25 00:53:10;;;;;;;4.23;0.93;;;-3.30;99.90;;;;;;4832522;29;20147;-67
2021/12/25 00:55:38;;;;;;;4.27;0.80;;;-3.20;99.90;;;;;;4831325;29;21623;-64
2021/12/25 00:58:05;;;;;;;3.23;1.23;;;-3.30;99.90;;;;;;4846772;29;20167;-63
2021/12/25 01:00:32;;;;;;;3.67;1.00;;;-3.30;99.90;;;;;;4826555;29;20072;-67
2021/12/25 01:02:59;;;;;;;11.73;3.10;;;-3.30;99.90;;;;;;4828305;29;21326;-66
2021/12/25 01:05:26;;;;;;;2.03;0.77;;;-3.30;99.90;;;;;;4828159;29;20072;-65
2021/12/25 01:07:53;;;;;;;4.60;0.77;;;-3.30;99.90;;;;;;4829271;29;20058;-65
2021/12/25 01:10:24;;;;;;;3.13;1.10;;;-3.30;99.90;;;;;;4842564;29;20071;-70
2021/12/25 01:13:05;;;;;;;0.80;0.77;;;-3.30;99.90;;;;;;4843020;29;20083;-68
2021/12/25 01:15:50;;;;;;;1.60;1.10;;;-3.30;99.90;;;;;;4828221;29;20128;-70
2021/12/25 01:32:50;;;;;;;2.90;0.50;;;-3.40;99.90;;;;;;4828062;29;20052;-66
2021/12/25 01:38:57;;;;;;;1.30;0.93;;;-3.30;99.90;;;;;;4827345;29;20746;-66
2021/12/25 01:48:39;;;;;;;1.53;1.00;;;-3.30;99.90;;;;;;4788249;29;20225;-65
2021/12/25 01:51:07;;;;;;;;;;;-3.30;99.90;;;;;;4828366;29;20060;-72
2021/12/25 01:53:34;;;;;;;4.40;1.03;;;-3.30;99.90;;;;;;4847600;29;20029;-64
2021/12/25 01:56:02;;;;;;;4.20;1.40;;;-3.30;99.90;;;;;;4826376;29;20067;-70
2021/12/25 01:58:29;;;;;;;2.50;1.43;;;-3.30;99.90;;;;;;4841216;29;20459;-64
2021/12/25 02:00:58;;;;;;;1.13;0.60;;;-3.30;99.90;;;;;;4826956;29;20067;-67
2021/12/25 02:03:29;;;;;;;2.40;0.60;;;-3.30;99.90;;;;;;4841406;29;20170;-70
2021/12/25 02:06:00;;;;;;;4.93;0.87;;;-3.30;99.90;;;;;;4827970;29;20060;-67
2021/12/25 02:08:33;;;;;;;3.03;0.90;;;-3.30;99.90;;;;;;4825538;29;20063;-67
2021/12/25 02:11:02;;;;;;;6.88;5.03;;;-3.30;99.90;;;;;;4842945;29;20063;-65
2021/12/25 02:13:29;;;;;;;3.53;0.60;;;-3.20;99.90;;;;;;4825657;29;20062;-68
2021/12/25 02:15:59;;;;;;;2.10;1.63;;;-3.30;99.90;;;;;;4829495;29;20061;-66
2021/12/25 02:18:53;;;;;;;0.33;0.30;;;-3.30;99.90;;;;;;4824800;29;20072;-71
2021/12/25 02:21:32;;;;;;;1.47;0.80;;;-3.30;99.90;;;;;;4827217;29;20093;-71
2021/12/25 02:23:59;;;;;;;1.30;0.93;;;-3.30;99.90;;;;;;4826151;29;20056;-67
2021/12/25 02:26:27;;;;;;;3.87;1.10;;;-3.30;99.90;;;;;;4825591;29;20183;-66
2021/12/25 02:28:54;;;;;;;1.17;0.60;;;-3.30;99.90;;;;;;4841383;29;21763;-65
2021/12/25 02:31:22;;;;;;;4.00;0.80;;;-3.20;99.90;;;;;;4827741;29;20431;-63
2021/12/25 02:33:49;;;;;;;0.70;0.60;;;-3.20;99.90;;;;;;4826372;29;20056;-64
2021/12/25 02:36:18;;;;;;;2.23;0.90;;;-3.20;99.90;;;;;;4823455;29;20063;-68
2021/12/25 02:38:47;;;;;;;3.10;0.83;;;-3.20;99.90;;;;;;4828811;29;20200;-68
2021/12/25 02:41:15;;;;;;;2.38;0.88;;;-3.20;99.90;;;;;;4830193;29;20168;-71
2021/12/25 02:43:45;;;;;;;2.23;0.60;;;-3.20;99.90;;;;;;4842843;29;20556;-68
2021/12/25 02:46:15;;;;;;;4.80;0.97;;;-3.20;99.90;;;;;;4845204;29;20232;-65
2021/12/25 02:48:43;;;;;;;2.57;0.90;;;-3.20;99.90;;;;;;4821822;29;20068;-68
2021/12/25 02:51:11;;;;;;;1.13;0.60;;;-3.10;99.90;;;;;;4841506;29;20128;-64
2021/12/25 02:53:40;;;;;;;1.83;1.00;;;-3.20;99.90;;;;;;4825215;29;20420;-71
2021/12/25 02:56:07;;;;;;;2.60;1.00;;;-3.10;99.90;;;;;;4825251;29;20227;-66
2021/12/25 02:58:37;;;;;;;1.90;0.80;;;-3.10;99.90;;;;;;4822595;29;20795;-68
2021/12/25 03:01:13;;;;;;;0.93;0.50;;;-3.10;99.90;;;;;;4823776;29;20067;-69
2021/12/25 03:03:41;;;;;;;1.67;0.63;;;-3.10;99.90;;;;;;4841484;29;21325;-70
2021/12/25 03:06:10;;;;;;;1.47;0.50;;;-3.10;99.90;;;;;;4830404;29;20151;-72
2021/12/25 03:08:39;;;;;;;0.63;0.60;;;-3.10;99.90;;;;;;4821891;29;20217;-69
2021/12/25 03:11:08;;;;;;;1.40;0.67;;;-3.10;99.90;;;;;;4839599;29;20090;-72
2021/12/25 03:13:44;;;;;;;3.03;0.57;;;-3.10;99.90;;;;;;4825309;29;20714;-74
2021/12/25 03:16:14;;;;;;;3.97;0.80;;;-3.00;99.90;;;;;;4843320;29;20052;-67
2021/12/25 03:18:45;;;;;;;2.93;0.77;;;-3.10;99.90;;;;;;4828994;29;20131;-71
2021/12/25 03:21:13;;;;;;;3.70;0.70;;;-3.00;99.90;;;;;;4830737;29;20056;-66
2021/12/25 03:23:41;;;;;;;0.93;0.63;;;-3.10;99.90;;;;;;4822335;29;20136;-68
2021/12/25 03:26:09;;;;;;;2.07;0.70;;;-3.10;99.90;;;;;;4826378;29;20059;-67
2021/12/25 03:28:40;;;;;;;4.27;1.50;;;-3.10;99.90;;;;;;4840457;29;20143;-67
2021/12/25 03:31:18;;;;;;;2.13;1.00;;;-3.10;99.90;;;;;;4827021;29;20081;-66
2021/12/25 03:33:52;;;;;;;3.47;0.90;;;-3.10;99.90;;;;;;4842700;29;20075;-66
2021/12/25 03:36:19;;;;;;;1.87;0.73;;;-3.10;99.90;;;;;;4821401;29;20053;-68
2021/12/25 03:38:47;;;;;;;1.20;0.83;;;-3.10;99.90;;;;;;4827709;29;20119;-66
2021/12/25 03:41:15;;;;;;;3.77;0.77;;;-3.10;99.90;;;;;;4828758;29;20060;-68
2021/12/25 03:43:43;;;;;;;1.03;0.60;;;-3.20;99.90;;;;;;4826859;29;20052;-68
2021/12/25 03:46:12;;;;;;;2.37;1.00;;;-3.20;99.90;;;;;;4842746;29;20064;-68
2021/12/25 03:59:16;;;;;;;2.13;1.00;;;-3.20;99.90;;;;;;4828241;29;20212;-67
2021/12/25 04:06:58;;;;;;;2.20;0.87;;;-3.20;99.90;;;;;;4825479;29;20160;-68
2021/12/25 04:09:30;;;;;;;3.33;1.10;;;-3.20;99.90;;;;;;4824349;29;21411;-65
2021/12/25 04:12:02;;;;;;;2.67;0.70;;;-3.20;99.90;;;;;;4842653;29;20052;-71
2021/12/25 04:14:31;;;;;;;2.90;1.07;;;-3.20;99.90;;;;;;4840316;29;20878;-67
2021/12/25 04:16:58;;;;;;;2.63;0.80;;;-3.20;99.90;;;;;;4826512;29;20057;-70
2021/12/25 04:19:25;;;;;;;0.97;0.60;;;-3.20;99.90;;;;;;4840883;29;20089;-70
2021/12/25 04:21:58;;;;;;;2.00;0.80;;;-3.20;99.90;;;;;;4824867;29;20063;-70
2021/12/25 04:24:27;;;;;;;1.63;0.70;;;-3.20;99.90;;;;;;4842061;29;20060;-70
2021/12/25 04:26:54;;;;;;;1.20;0.68;;;-3.20;99.90;;;;;;4826038;29;20053;-67
2021/12/25 05:05:47;;;;;;;2.03;1.10;;;-3.10;99.90;;;;;;4823195;29;21775;-66
2021/12/25 05:08:21;;;;;;;1.53;1.17;;;-3.10;99.90;;;;;;4822017;29;20068;-65
2021/12/25 05:10:48;;;;;;;3.77;1.70;;;-3.10;99.90;;;;;;4825182;29;20060;-65
2021/12/25 05:13:15;;;;;;;4.23;2.27;;;-3.10;99.90;;;;;;4840996;29;20060;-66
2021/12/25 05:15:42;;;;;;;3.17;1.43;;;-3.10;99.90;;;;;;4840781;29;20063;-70
2021/12/25 05:18:09;;;;;;;2.67;1.97;;;-3.00;99.90;;;;;;4843739;29;20056;-66
2021/12/25 05:20:36;;;;;;;4.87;2.77;;;-3.00;99.90;;;;;;4827010;29;20536;-72
2021/12/25 05:23:04;;;;;;;4.73;1.77;;;-3.00;99.90;;;;;;4846284;29;20143;-68
2021/12/25 05:25:33;;;;;;;3.47;1.53;;;-3.10;99.90;;;;;;4828044;29;20084;-67
2021/12/25 05:28:01;;;;;;;6.03;4.03;;;-3.10;99.90;;;;;;4828600;29;20147;-71
2021/12/25 05:30:29;;;;;;;6.43;3.00;;;-3.10;99.90;;;;;;4833407;29;20136;-70
2021/12/25 05:33:25;;;;;;;5.43;2.40;;;-3.00;99.90;;;;;;4828836;29;20143;-66
2021/12/25 05:36:07;;;;;;;2.60;1.67;;;-3.10;99.90;;;;;;4825895;29;20132;-69
2021/12/25 05:38:46;;;;;;;2.85;1.48;;;-3.10;99.90;;;;;;4840809;29;20066;-71
2021/12/25 05:41:16;;;;;;;7.07;2.40;;;-3.10;99.90;;;;;;4843156;29;20197;-67
2021/12/25 05:43:43;;;;;;;4.00;1.30;;;-3.10;99.90;;;;;;4842668;29;20060;-65
2021/12/25 05:46:17;;;;;;;4.03;1.50;;;-3.10;99.90;;;;;;4826994;29;21025;-64
2021/12/25 05:48:45;;;;;;;6.33;1.60;;;-3.10;99.90;;;;;;4840314;29;20171;-69
2021/12/25 05:51:33;;;;;;;5.07;2.37;;;-3.10;99.90;;;;;;4818384;29;20052;-65
2021/12/25 05:54:25;;;;;;;2.27;1.70;;;-3.10;99.90;;;;;;4825918;29;20130;-70
2021/12/25 05:57:15;;;;;;;2.97;1.40;;;-3.10;99.90;;;;;;4829777;29;20056;-68
2021/12/25 06:00:11;;;;;;;4.73;1.57;;;-3.10;99.90;;;;;;4829757;29;20072;-65
2021/12/25 06:02:41;;;;;;;5.53;1.93;;;-3.00;99.90;;;;;;4828093;29;20911;-68
2021/12/25 06:05:20;;;;;;;1.77;1.27;;;-3.00;99.90;;;;;;4843793;29;20160;-66
2021/12/25 06:07:48;;;;;;;4.67;1.40;;;-3.00;99.90;;;;;;4832547;29;20402;-67
2021/12/25 06:10:14;;;;;;;2.47;1.37;;;-3.00;99.90;;;;;;4828732;29;20067;-65
2021/12/25 06:12:47;;;;;;;2.93;1.50;;;-2.90;99.90;;;;;;4826884;29;20567;-70
2021/12/25 06:15:19;;;;;;;2.80;1.67;;;-2.90;99.90;;;;;;4841661;29;20052;-65
2021/12/25 06:17:49;;;;;;;3.23;1.23;;;-2.90;99.90;;;;;;4841832;29;20102;-71
2021/12/25 06:20:25;;;;;;;2.33;1.50;;;-2.90;99.90;;;;;;4822661;29;20064;-70
2021/12/25 06:23:10;;;;;;;2.33;2.07;;;-2.90;99.90;;;;;;4826842;29;20052;-68
2021/12/25 06:25:45;;;;;;;2.63;1.97;;;-2.90;99.90;;;;;;4828186;29;20048;-71
2021/12/25 06:28:38;;;;;;;1.87;1.40;;;-2.90;99.90;;;;;;4826278;29;20111;-68
2021/12/25 06:31:24;;;;;;;2.80;1.30;;;-2.80;99.90;;;;;;4828966;29;20143;-70
2021/12/25 06:33:59;;;;;;;4.03;1.03;;;-2.90;99.90;;;;;;4830106;29;21792;-69
2021/12/25 06:36:38;;;;;;;2.67;1.15;;;-2.90;99.90;;;;;;4827101;29;20136;-65
2021/12/25 06:39:34;;;;;;;2.83;1.23;;;-2.90;99.90;;;;;;4828363;29;20059;-68
2021/12/25 06:42:08;;;;;;;2.90;2.10;;;-3.00;99.90;;;;;;4827518;29;20061;-65
2021/12/25 06:44:36;;;;;;;1.93;1.07;;;-2.90;99.90;;;;;;4841642;29;20052;-67
2021/12/25 06:47:03;;;;;;;2.23;1.10;;;-2.90;99.90;;;;;;4830049;29;20168;-67
2021/12/25 06:49:32;;;;;;;2.17;1.40;;;-2.80;99.90;;;;;;4843132;29;20052;-68
2021/12/25 06:52:23;;;;;;;5.13;1.60;;;-2.80;99.90;;;;;;4827321;29;20455;-67
2021/12/25 06:55:06;;;;;;;2.67;1.60;;;-2.80;99.90;;;;;;4825425;29;20053;-66
2021/12/25 06:57:52;;;;;;;1.77;1.30;;;-2.80;99.90;;;;;;4825413;29;20053;-67
2021/12/25 07:00:19;;;;;;;5.13;1.50;;;-2.70;99.90;;;;;;4827910;29;20057;-65
2021/12/25 07:02:47;;;;;;;1.17;1.07;;;-2.70;99.90;;;;;;4838531;29;20053;-71
2021/12/25 07:05:37;;;;;;;2.53;1.35;;;-2.80;99.90;;;;;;4807797;29;20056;-71
2021/12/25 07:08:22;;;;;;;1.33;1.10;;;-2.80;99.90;;;;;;4838734;29;20079;-63
2021/12/25 07:10:59;;;;;;;7.17;1.47;;;-2.70;99.90;;;;;;4826734;29;20754;-64
2021/12/25 07:13:51;;;;;;;4.73;1.37;;;-2.70;99.90;;;;;;4819723;29;20072;-67
2021/12/25 07:16:37;;;;;;;3.83;1.47;;;-2.60;99.90;;;;;;4825665;29;20064;-69
2021/12/25 07:19:23;;;;;;;2.10;1.37;;;-2.60;99.90;;;;;;4828820;29;20165;-72
2021/12/25 07:22:03;;;;;;;5.13;2.30;;;-2.60;99.90;;;;;;4828526;29;20055;-69
2021/12/25 07:24:33;;;;;;;4.40;1.63;;;-2.60;99.90;;;;;;4827296;29;20471;-69
2021/12/25 07:27:35;;;;;;;4.17;1.60;;;-2.60;99.90;;;;;;4808587;29;20577;-67
2021/12/25 07:30:05;;;;;;;7.00;2.00;;;-2.60;99.90;;;;;;4822893;29;20129;-69
2021/12/25 07:32:32;;;;;;;2.50;0.93;;;-2.60;99.90;;;;;;4826444;29;20185;-65
2021/12/25 07:34:59;;;;;;;1.70;1.40;;;-2.60;99.90;;;;;;4826650;29;20073;-66
2021/12/25 07:37:26;;;;;;;3.00;2.10;;;-2.70;99.90;;;;;;4826446;29;20056;-67
2021/12/25 07:39:52;;;;;;;5.63;2.20;;;-2.60;99.90;;;;;;4824734;29;20217;-70
2021/12/25 07:42:19;;;;;;;1.90;1.43;;;-2.60;99.90;;;;;;4822961;29;21408;-71
2021/12/25 07:45:05;;;;;;;2.23;0.87;;;-2.70;99.90;;;;;;4840790;29;20056;-69
2021/12/25 07:47:34;;;;;;;;;;;-2.70;99.90;;;;;;4829525;29;20064;-70
2021/12/25 07:50:03;;;;;;;2.73;1.87;;;-2.70;99.90;;;;;;4824164;29;19931;-66
2021/12/25 07:52:30;;;;;;;1.70;0.83;;;-2.70;99.90;;;;;;4824806;29;20061;-67
2021/12/25 07:54:57;;;;;;;5.00;1.20;;;-2.70;99.90;;;;;;4823101;29;20227;-69
2021/12/25 07:57:24;;;;;;;1.50;1.40;;;-2.70;99.90;;;;;;4825973;29;20379;-67
2021/12/25 07:59:51;;;;;;;2.03;1.30;;;-2.70;99.90;;;;;;4822835;29;20052;-70
2021/12/25 08:02:18;;;;;;;2.23;1.00;;;-2.70;99.90;;;;;;4821824;29;20049;-69
2021/12/25 08:04:45;;;;;;;1.80;1.20;;;-2.70;99.90;;;;;;4825278;29;20421;-69
2021/12/25 08:07:12;;;;;;;2.63;1.13;;;-2.70;99.90;;;;;;4827741;29;20185;-73
2021/12/25 08:09:39;;;;;;;1.87;1.20;;;-2.70;99.90;;;;;;4826390;29;20120;-71
2021/12/25 08:12:07;;;;;;;5.87;1.30;;;-2.70;99.90;;;;;;4829636;29;20156;-69
2021/12/25 08:14:34;;;;;;;5.00;1.17;;;-2.60;99.90;;;;;;4825369;29;20055;-66
2021/12/25 08:17:04;;;;;;;2.63;1.43;;;-2.50;99.90;;;;;;4828735;29;20222;-69
2021/12/25 08:19:52;;;;;;;3.57;1.20;;;-2.50;99.90;;;;;;4826613;29;20110;-66
2021/12/25 08:22:45;;;;;;;4.43;1.35;;;-2.50;99.90;;;;;;4814573;29;20124;-65
2021/12/25 08:25:50;;;;;;;2.73;1.00;;;-2.50;99.90;;;;;;4808713;29;20724;-67
2021/12/25 08:28:40;;;;;;;2.20;1.40;;;-2.50;99.90;;;;;;4805683;29;20057;-71
2021/12/25 08:31:26;;;;;;;2.33;0.70;;;-2.40;99.90;;;;;;4822629;29;20162;-65
2021/12/25 08:34:13;;;;;;;1.53;1.27;;;-2.40;99.90;;;;;;4826730;29;20052;-68
2021/12/25 08:36:58;;;;;;;1.70;0.80;;;-2.30;99.90;;;;;;4828490;29;20064;-74
2021/12/25 08:39:25;;;;;;;1.85;0.47;;;-2.30;99.90;;;;;;4827165;29;20053;-73
2021/12/25 08:42:00;;;;;;;2.20;0.80;;;-2.30;99.90;;;;;;4830403;29;20135;-69
2021/12/25 08:44:34;;;;;;;1.00;0.50;;;-2.30;99.90;;;;;;4825212;29;20060;-73
2021/12/25 08:47:04;;;;;;;1.75;0.60;;;-2.30;99.90;;;;;;4830386;29;20048;-68
2021/12/25 08:49:34;;;;;;;0.95;0.50;;;-2.30;99.90;;;;;;4828196;29;20060;-68
2021/12/25 08:52:05;;;;;;;0.63;0.63;;;-2.40;99.90;;;;;;4828733;29;20044;-68
2021/12/25 08:54:33;;;;;;;3.10;0.40;;;-2.40;99.90;;;;;;4829078;29;20382;-67
2021/12/25 08:57:01;;;;;;;0.43;0.37;;;-2.50;99.90;;;;;;4829379;29;20865;-74
2021/12/25 08:59:28;;;;;;;0.90;0.43;;;-2.50;99.90;;;;;;4828894;29;20056;-71
2021/12/25 09:01:56;;;;;;;0.87;0.40;;;-2.50;99.90;;;;;;4831248;29;20148;-71
2021/12/25 09:04:23;;;;;;;2.00;0.50;;;-2.60;99.90;;;;;;4826571;29;20139;-72
2021/12/25 09:06:50;;;;;;;4.23;0.60;;;-2.60;99.90;;;;;;4829489;29;20479;-68
2021/12/25 09:09:17;;;;;;;0.30;0.20;;;-2.50;99.90;;;;;;4829561;29;20554;-72
2021/12/25 09:11:45;;;;;;;0.93;0.40;;;-2.50;99.90;;;;;;4829930;29;20196;-72
2021/12/25 09:14:12;;;;;;;1.80;0.80;;;-2.50;99.90;;;;;;4828597;29;20056;-66
2021/12/25 09:16:40;;;;;;;1.63;0.40;;;-2.50;99.90;;;;;;4828625;29;20171;-73
2021/12/25 09:19:07;;;;;;;0.97;0.50;;;-2.50;99.90;;;;;;4828965;29;20056;-69
2021/12/25 09:21:34;;;;;;;1.33;0.60;;;-2.50;99.90;;;;;;4829255;29;20188;-66
2021/12/25 09:24:01;;;;;;;0.93;0.40;;;-2.50;99.90;;;;;;4828868;29;21521;-65
2021/12/25 09:26:28;;;;;;;2.00;0.40;;;-2.50;99.90;;;;;;4827382;29;20096;-69
2021/12/25 09:28:55;;;;;;;0.50;0.23;;;-2.50;99.90;;;;;;4829773;29;20107;-71
2021/12/25 09:31:22;;;;;;;1.57;0.40;;;-2.50;99.90;;;;;;4827631;29;20061;-64
2021/12/25 09:33:51;;;;;;;2.03;0.60;;;-2.40;99.90;;;;;;4829724;29;20057;-64
2021/12/25 09:36:20;;;;;;;1.42;0.38;;;-2.40;99.90;;;;;;4829523;29;20749;-65
2021/12/25 09:38:48;;;;;;;0.80;0.30;;;-2.40;99.90;;;;;;4830295;29;20056;-66
2021/12/25 09:41:16;;;;;;;0.77;0.43;;;-2.40;99.90;;;;;;4829711;29;20061;-65
2021/12/25 09:43:47;;;;;;;1.07;0.40;;;-2.40;99.90;;;;;;4828243;29;20052;-63
2021/12/25 09:46:14;;;;;;;;;;;-2.40;99.90;;;;;;4826432;29;20056;-67
2021/12/25 09:48:42;;;;;;;5.43;2.60;;;-2.30;99.90;;;;;;4826210;29;19935;-67
2021/12/25 09:51:09;;;;;;;0.80;0.80;;;-2.30;99.90;;;;;;4828291;29;20116;-73
2021/12/25 09:53:36;;;;;;;1.67;1.07;;;-2.30;99.90;;;;;;4826627;29;20476;-66
2021/12/25 09:56:04;;;;;;;1.10;0.50;;;-2.20;99.90;;;;;;4826551;29;20084;-65
2021/12/25 09:58:36;;;;;;;1.93;0.50;;;-2.10;99.90;;;;;;4829521;29;20055;-72
2021/12/25 10:01:03;;;;;;;3.50;0.60;;;-2.10;99.90;;;;;;4828421;29;20183;-69
2021/12/25 10:03:45;;;;;;;5.77;1.70;;;-2.00;99.90;;;;;;4829200;29;20060;-71
2021/12/25 10:06:34;;;;;;;3.22;0.47;;;-2.00;99.90;;;;;;4829823;29;20440;-66
2021/12/25 10:09:18;;;;;;;2.00;0.63;;;-2.00;99.90;;;;;;4828130;29;20589;-65
2021/12/25 10:11:57;;;;;;;4.85;0.63;;;-2.00;99.90;;;;;;4829721;29;20094;-66
2021/12/25 10:14:25;;;;;;;2.50;0.90;;;-1.90;99.90;;;;;;4825590;29;20155;-67
2021/12/25 10:16:52;;;;;;;3.40;0.70;;;-1.90;99.90;;;;;;4826489;29;20143;-65
2021/12/25 10:19:22;;;;;;;2.75;0.63;;;-1.90;99.90;;;;;;4827497;29;20115;-68
2021/12/25 10:22:05;;;;;;;8.10;1.48;;;-1.90;99.90;;;;;;4828311;29;20064;-70
2021/12/25 10:24:41;;;;;;;1.13;0.60;;;-1.90;99.90;;;;;;4824056;29;20104;-65
2021/12/25 10:27:13;;;;;;;3.97;0.63;;;-1.90;99.90;;;;;;4825240;29;20164;-66
2021/12/25 10:29:41;;;;;;;3.90;0.70;;;-1.80;99.90;;;;;;4810823;29;20056;-65
2021/12/25 10:32:21;;;;;;;2.28;1.00;;;-1.90;99.90;;;;;;4807289;29;20056;-75
2021/12/25 10:34:50;;;;;;;1.48;0.70;;;-1.80;99.90;;;;;;4811580;29;20063;-70
2021/12/25 10:37:19;;;;;;;0.98;0.63;;;-1.80;99.90;;;;;;4818469;29;20192;-68
2021/12/25 10:39:47;;;;;;;3.88;0.80;;;-1.80;99.90;;;;;;4816881;29;20053;-64
2021/12/25 10:42:19;;;;;;;3.35;1.30;;;-1.70;99.90;;;;;;4815796;29;20049;-74
2021/12/25 10:44:55;;;;;;;1.80;1.10;;;-1.70;99.90;;;;;;4813159;29;20048;-75
2021/12/25 10:47:25;;;;;;;2.65;0.73;;;-1.60;99.90;;;;;;4816581;29;20926;-71
2021/12/25 10:49:58;;;;;;;2.22;0.70;;;-1.60;99.90;;;;;;4816068;29;20067;-69
2021/12/25 10:52:40;;;;;;;2.35;0.55;;;-1.70;99.90;;;;;;4813367;29;20120;-72
2021/12/25 10:55:18;;;;;;;2.70;0.73;;;-1.70;99.90;;;;;;4814283;29;20198;-74
2021/12/25 10:57:54;;;;;;;3.28;0.90;;;-1.60;99.90;;;;;;4817921;29;20121;-72
2021/12/25 11:00:21;;;;;;;11.43;2.35;;;-1.60;99.90;;;;;;4812365;29;21352;-72
2021/12/25 11:02:53;;;;;;;0.80;0.45;;;-1.60;99.90;;;;;;4816196;29;20071;-64
2021/12/25 11:05:24;;;;;;;1.48;0.50;;;-1.60;99.90;;;;;;4812864;29;20669;-66
2021/12/25 11:08:02;;;;;;;3.90;0.88;;;-1.60;99.90;;;;;;4814621;29;20053;-74
2021/12/25 11:10:30;;;;;;;3.10;1.58;;;-1.50;99.90;;;;;;4813143;29;20056;-65
2021/12/25 11:12:59;;;;;;;1.52;0.30;;;-1.50;99.90;;;;;;4814825;29;20045;-65
2021/12/25 11:15:30;;;;;;;2.40;0.85;;;-1.40;99.90;;;;;;4814033;29;20163;-69
2021/12/25 11:18:06;;;;;;;2.72;0.60;;;-1.30;99.90;;;;;;4816220;29;20139;-69
2021/12/25 11:20:38;;;;;;;0.93;0.60;;;-1.30;99.90;;;;;;4814223;29;20053;-69
2021/12/25 11:23:08;;;;;;;3.88;1.30;;;-1.30;99.90;;;;;;4815648;29;20088;-71
2021/12/25 11:25:37;;;;;;;1.02;0.80;;;-1.30;99.90;;;;;;4817174;29;20052;-64
2021/12/25 11:28:07;;;;;;;2.58;1.30;;;-1.20;99.90;;;;;;4816747;29;20048;-69
2021/12/25 11:30:35;;;;;;;;;;;-1.20;99.90;;;;;;4813275;29;20104;-66
2021/12/25 11:33:02;;;;;;;6.38;1.33;;;-1.20;99.90;;;;;;4815001;29;20003;-67
2021/12/25 11:35:33;;;;;;;4.53;2.78;;;-1.30;99.90;;;;;;4815506;29;20242;-69
2021/12/25 11:38:03;;;;;;;2.63;0.60;;;-1.30;99.90;;;;;;4815580;29;20068;-70
2021/12/25 11:40:33;;;;;;;1.33;0.45;;;-1.30;99.90;;;;;;4812712;29;20847;-72
2021/12/25 11:43:04;;;;;;;0.98;0.65;;;-1.30;99.90;;;;;;4813021;29;20057;-72
2021/12/25 11:45:36;;;;;;;3.15;0.98;;;-1.20;99.90;;;;;;4814486;29;20063;-69
2021/12/25 11:48:17;;;;;;;1.80;0.90;;;-1.20;99.90;;;;;;4813176;29;20155;-73
2021/12/25 11:50:48;;;;;;;4.97;0.93;;;-1.30;99.90;;;;;;4808787;29;20129;-68
2021/12/25 11:56:48;;;;;;;1.67;0.60;;;-1.30;99.90;;;;;;4810260;29;20042;-70
2021/12/25 11:58:55;;;;;;;4.60;0.88;;;-1.30;99.90;;;;;;4800950;29;20072;-71
2021/12/25 12:01:35;;;;;;;0.73;0.65;;;-1.30;99.90;;;;;;4817653;29;20096;-67
2021/12/25 12:04:19;;;;;;;4.38;0.95;;;-1.20;99.90;;;;;;4825839;29;20115;-66
2021/12/25 12:06:46;;;;;;;1.70;0.68;;;-1.20;99.90;;;;;;4824166;29;20052;-66
2021/12/25 12:09:21;;;;;;;1.55;1.02;;;-1.20;99.90;;;;;;4818616;29;20134;-70
2021/12/25 12:12:17;;;;;;;3.97;0.80;;;-1.20;99.90;;;;;;4825637;29;20052;-71
2021/12/25 12:15:16;;;;;;;1.10;0.70;;;-1.20;99.90;;;;;;4819887;29;20100;-70
2021/12/25 12:18:23;;;;;;;0.65;0.30;;;-1.20;99.90;;;;;;4825203;29;20196;-68
2021/12/25 12:21:09;;;;;;;1.33;0.40;;;-1.20;99.90;;;;;;4822942;29;20607;-71
2021/12/25 12:23:52;;;;;;;2.25;2.03;;;-1.10;99.90;;;;;;4826705;29;20511;-68
2021/12/25 12:26:43;;;;;;;2.05;0.43;;;-1.10;99.90;;;;;;4824051;29;20140;-69
2021/12/25 12:29:12;;;;;;;4.38;0.75;;;-1.10;99.90;;;;;;4826119;29;20063;-71
2021/12/25 12:31:46;;;;;;;0.70;0.52;;;-1.10;99.90;;;;;;4840493;29;20291;-68
2021/12/25 12:34:33;;;;;;;1.52;0.70;;;-1.20;99.90;;;;;;4822748;29;20075;-67
2021/12/25 12:37:14;;;;;;;2.00;0.80;;;-1.20;99.90;;;;;;4819338;29;20253;-65
2021/12/25 12:39:58;;;;;;;2.78;0.93;;;-1.10;99.90;;;;;;4820941;29;20056;-67
2021/12/25 12:42:40;;;;;;;4.40;0.63;;;-1.10;99.90;;;;;;4819581;29;22879;-67
2021/12/25 12:45:32;;;;;;;6.28;1.33;;;-1.10;99.90;;;;;;4822159;29;20369;-65
2021/12/25 12:48:20;;;;;;;1.40;0.50;;;-1.10;99.90;;;;;;4822145;29;20144;-66
2021/12/25 12:50:50;;;;;;;3.38;0.88;;;-1.00;99.90;;;;;;4821659;29;20135;-69
2021/12/25 12:53:19;;;;;;;3.55;1.25;;;-1.00;99.90;;;;;;4824018;29;20140;-70
2021/12/25 12:55:49;;;;;;;2.00;0.70;;;-1.00;99.90;;;;;;4826239;29;20153;-72
2021/12/25 12:58:18;;;;;;;6.28;0.95;;;-1.00;99.90;;;;;;4824727;29;20053;-69
2021/12/25 13:00:55;;;;;;;2.70;1.20;;;-1.00;99.90;;;;;;4822358;29;20106;-70
2021/12/25 13:03:24;;;;;;;1.70;0.68;;;-1.00;99.90;;;;;;4820188;29;20476;-69
2021/12/25 13:06:09;;;;;;;5.57;1.13;;;-0.90;99.90;;;;;;4821823;29;20140;-73
2021/12/25 13:08:39;;;;;;;3.53;1.15;;;-0.90;99.90;;;;;;4820133;29;20236;-72
2021/12/25 13:11:13;;;;;;;2.28;1.42;;;-0.90;99.90;;;;;;4822679;29;20056;-65
2021/12/25 13:13:50;;;;;;;1.25;0.80;;;-0.90;99.90;;;;;;4819010;29;20144;-70
2021/12/25 13:16:19;;;;;;;4.20;0.80;;;-0.90;99.90;;;;;;4819491;29;21759;-69
2021/12/25 13:18:49;;;;;;;4.10;1.25;;;-0.80;99.90;;;;;;4822359;29;20079;-69
2021/12/25 13:21:22;;;;;;;3.70;0.77;;;-0.80;99.90;;;;;;4820879;29;20062;-68
2021/12/25 13:23:55;;;;;;;9.38;0.95;;;-0.80;99.90;;;;;;4823156;29;20440;-69
2021/12/25 13:26:33;;;;;;;1.98;1.00;;;-0.80;99.90;;;;;;4819703;29;20080;-66
2021/12/25 13:29:03;;;;;;;1.42;0.90;;;-0.80;99.90;;;;;;4824432;29;20041;-71
2021/12/25 13:31:33;;;;;;;3.13;0.82;;;-0.80;99.90;;;;;;4824875;29;20056;-65
2021/12/25 13:34:03;;;;;;;;;;;-0.70;99.90;;;;;;4826800;29;20132;-71
2021/12/25 13:36:33;;;;;;;1.83;1.17;;;-0.70;99.90;;;;;;4824300;29;19935;-71
2021/12/25 13:39:06;;;;;;;4.10;1.15;;;-0.70;99.90;;;;;;4823223;29;20065;-67
2021/12/25 13:41:39;;;;;;;6.97;0.77;;;-0.60;99.90;;;;;;4821884;29;20171;-72
2021/12/25 13:44:27;;;;;;;3.10;1.13;;;-0.60;99.90;;;;;;4823466;29;20480;-70
2021/12/25 13:47:01;;;;;;;1.38;0.60;;;-0.70;99.90;;;;;;4824876;29;20189;-68
2021/12/25 13:49:34;;;;;;;3.17;1.40;;;-0.70;99.90;;;;;;4828633;29;20056;-67
2021/12/25 13:52:04;;;;;;;7.07;1.35;;;-0.70;99.90;;;;;;4829086;29;20930;-65
2021/12/25 13:54:33;;;;;;;2.28;1.25;;;-0.70;99.90;;;;;;4828046;29;20123;-67
2021/12/25 13:56:59;;;;;;;2.22;1.00;;;-0.70;99.90;;;;;;4829496;29;21529;-65
2021/12/25 13:59:27;;;;;;;2.30;0.80;;;-0.60;99.90;;;;;;4828090;29;20193;-66
2021/12/25 14:02:00;;;;;;;1.38;0.93;;;-0.60;99.90;;;;;;4829263;29;20068;-76
2021/12/25 14:04:28;;;;;;;1.63;0.85;;;-0.60;99.90;;;;;;4825582;29;20056;-65
2021/12/25 14:06:56;;;;;;;2.58;1.55;;;-0.60;99.90;;;;;;4829635;29;20055;-70
2021/12/25 14:09:23;;;;;;;1.48;1.02;;;-0.50;99.90;;;;;;4826522;29;20064;-72
2021/12/25 14:11:55;;;;;;;3.22;0.85;;;-0.50;99.90;;;;;;4829961;29;20044;-68
2021/12/25 14:14:25;;;;;;;1.27;0.90;;;-0.40;99.90;;;;;;4824378;29;20060;-67
2021/12/25 14:16:53;;;;;;;5.45;2.10;;;-0.50;99.90;;;;;;4830116;29;20274;-65
2021/12/25 14:19:30;;;;;;;1.70;1.27;;;-0.50;99.90;;;;;;4824475;29;20085;-71
2021/12/25 14:22:00;;;;;;;5.18;1.38;;;-0.40;99.90;;;;;;4827732;29;23067;-69
2021/12/25 14:24:30;;;;;;;;;;;-0.40;99.90;;;;;;4837695;29;20175;-72
2021/12/25 14:27:12;;;;;;;1.48;1.08;;;-0.30;99.90;;;;;;4825028;29;19979;-70
2021/12/25 14:29:40;;;;;;;7.25;1.30;;;-0.40;99.90;;;;;;4826127;29;21430;-68
2021/12/25 14:32:21;;;;;;;3.45;1.38;;;-0.30;99.90;;;;;;4828565;29;20067;-64
2021/12/25 14:34:49;;;;;;;2.17;1.40;;;-0.30;99.90;;;;;;4824604;29;20170;-68
2021/12/25 14:37:17;;;;;;;3.00;1.10;;;-0.30;99.90;;;;;;4830012;29;20132;-69